Terminal Aerodrome Forecast
Issued by NWS Portland, ME

Home | Current Version | Previous Version | Text Only | Print | Product List | Glossary On
Versions: 1 2 3 4 5 6 7 8 9 10 11 12 13 14 15 16 17 18 19 20
275
FTUS41 KGYX 230524
TAFPWM
TAF
KPWM 230524Z 2306/2406 21008KT P6SM SCT040 BKN090
      TEMPO 2306/2310 5SM SHRA BKN050 BKN100
     FM231200 25008G16KT P6SM SCT050 SCT100
     FM240000 27004KT P6SM SKC=

USA.gov is the U.S. government's official web portal to all federal, state and local government web resources and services.